Portland, United Kingdom
Current Conditions -  °F | °C
As of 9:50 PM on Tuesday 25 Nov 2014 (Local Time) from EGHH Reporting Station
Drizzle Drizzle  
Wind Chill:   Ceiling: 1400
Heat Index:   Visibility: 2.8mi
Dew Point:   Wind: 8mph
Humidity: 100%   Direction: 30°NNE
Pressure: 29.97"   Gusts: NA
Location:  50.56°N, 2.44°W
Report Text: EGHH 252150Z 03007KT 4500 DZ BR FEW004 BKN014 07/07 Q1015
Loading
Personal Weather Stations






























Interactive Weather Map New forecast layout! Learn more

10-Day Weather Forecast

Advertisements
Track Severe Weather on mobile